sensor_id;sensor_type;location;lat;lon;timestamp;pressure;altitude;pressure_sealevel;temperature;humidity
15678;BME280;7939;50.814;6.368;2023-09-30T00:02:18;100848.94;;;20.89;60.07
15678;BME280;7939;50.814;6.368;2023-09-30T00:04:45;100860.25;;;20.88;60.26
15678;BME280;7939;50.814;6.368;2023-09-30T00:07:11;100857.63;;;20.88;60.07
15678;BME280;7939;50.814;6.368;2023-09-30T00:09:39;100857.69;;;20.85;59.95
15678;BME280;7939;50.814;6.368;2023-09-30T00:12:06;100869.84;;;20.84;59.99
15678;BME280;7939;50.814;6.368;2023-09-30T00:14:33;100869.88;;;20.83;60.12
15678;BME280;7939;50.814;6.368;2023-09-30T00:17:01;100864.75;;;20.81;60.09
15678;BME280;7939;50.814;6.368;2023-09-30T00:19:28;100859.53;;;20.81;60.13
15678;BME280;7939;50.814;6.368;2023-09-30T00:21:54;100849.16;;;20.80;60.03
15678;BME280;7939;50.814;6.368;2023-09-30T00:24:21;100846.56;;;20.80;60.29
15678;BME280;7939;50.814;6.368;2023-09-30T00:26:49;100844.88;;;20.79;60.05
15678;BME280;7939;50.814;6.368;2023-09-30T00:29:16;100842.31;;;20.77;60.07
15678;BME280;7939;50.814;6.368;2023-09-30T00:31:43;100844.06;;;20.77;59.92
15678;BME280;7939;50.814;6.368;2023-09-30T00:34:10;100847.56;;;20.76;60.06
15678;BME280;7939;50.814;6.368;2023-09-30T00:36:36;100851.06;;;20.74;60.06
15678;BME280;7939;50.814;6.368;2023-09-30T00:39:03;100839.78;;;20.74;60.06
15678;BME280;7939;50.814;6.368;2023-09-30T00:41:31;100855.38;;;20.74;59.96
15678;BME280;7939;50.814;6.368;2023-09-30T00:43:59;100858.06;;;20.71;59.83
15678;BME280;7939;50.814;6.368;2023-09-30T00:46:28;100868.44;;;20.71;60.05
15678;BME280;7939;50.814;6.368;2023-09-30T00:48:57;100881.47;;;20.69;59.96
15678;BME280;7939;50.814;6.368;2023-09-30T00:51:24;100874.56;;;20.68;60.21
15678;BME280;7939;50.814;6.368;2023-09-30T00:53:52;100864.19;;;20.67;59.99
15678;BME280;7939;50.814;6.368;2023-09-30T00:56:19;100861.59;;;20.67;60.12
15678;BME280;7939;50.814;6.368;2023-09-30T00:58:47;100862.50;;;20.66;60.06
15678;BME280;7939;50.814;6.368;2023-09-30T01:01:18;100865.09;;;20.66;60.09
15678;BME280;7939;50.814;6.368;2023-09-30T01:03:45;100860.78;;;20.65;60.05
15678;BME280;7939;50.814;6.368;2023-09-30T01:06:12;100859.94;;;20.64;60.02
15678;BME280;7939;50.814;6.368;2023-09-30T01:08:39;100865.19;;;20.63;60.11
15678;BME280;7939;50.814;6.368;2023-09-30T01:11:07;100850.50;;;20.62;60.10
15678;BME280;7939;50.814;6.368;2023-09-30T01:13:34;100853.97;;;20.61;60.27
15678;BME280;7939;50.814;6.368;2023-09-30T01:16:04;100854.00;;;20.59;60.24
15678;BME280;7939;50.814;6.368;2023-09-30T01:18:33;100856.59;;;20.59;60.15
15678;BME280;7939;50.814;6.368;2023-09-30T01:21:01;100864.38;;;20.59;60.18
15678;BME280;7939;50.814;6.368;2023-09-30T01:23:30;100859.25;;;20.58;60.09
15678;BME280;7939;50.814;6.368;2023-09-30T01:25:57;100863.59;;;20.57;60.30
15678;BME280;7939;50.814;6.368;2023-09-30T01:28:28;100872.28;;;20.56;59.81
15678;BME280;7939;50.814;6.368;2023-09-30T01:30:55;100871.44;;;20.54;60.21
15678;BME280;7939;50.814;6.368;2023-09-30T01:33:22;100880.94;;;20.55;60.25
15678;BME280;7939;50.814;6.368;2023-09-30T01:35:49;100880.13;;;20.53;60.24
15678;BME280;7939;50.814;6.368;2023-09-30T01:38:16;100882.75;;;20.52;59.92
15678;BME280;7939;50.814;6.368;2023-09-30T01:40:44;100877.56;;;20.52;60.21
15678;BME280;7939;50.814;6.368;2023-09-30T01:43:12;100881.06;;;20.51;60.15
15678;BME280;7939;50.814;6.368;2023-09-30T01:45:39;100876.75;;;20.50;60.26
15678;BME280;7939;50.814;6.368;2023-09-30T01:48:06;100879.34;;;20.50;60.17
15678;BME280;7939;50.814;6.368;2023-09-30T01:50:32;100878.50;;;20.47;60.24
15678;BME280;7939;50.814;6.368;2023-09-30T01:52:59;100881.09;;;20.47;60.31
15678;BME280;7939;50.814;6.368;2023-09-30T01:55:26;100868.16;;;20.46;60.23
15678;BME280;7939;50.814;6.368;2023-09-30T01:57:54;100874.25;;;20.45;60.26
15678;BME280;7939;50.814;6.368;2023-09-30T02:00:20;100874.25;;;20.45;60.35
15678;BME280;7939;50.814;6.368;2023-09-30T02:02:47;100873.41;;;20.43;60.18
15678;BME280;7939;50.814;6.368;2023-09-30T02:05:14;100874.28;;;20.43;60.25
15678;BME280;7939;50.814;6.368;2023-09-30T02:07:41;100877.72;;;20.42;60.01
15678;BME280;7939;50.814;6.368;2023-09-30T02:10:09;100876.03;;;20.41;60.16
15678;BME280;7939;50.814;6.368;2023-09-30T02:12:35;100871.72;;;20.40;60.35
15678;BME280;7939;50.814;6.368;2023-09-30T02:15:05;100864.81;;;20.39;60.23
15678;BME280;7939;50.814;6.368;2023-09-30T02:17:32;100868.31;;;20.38;60.31
15678;BME280;7939;50.814;6.368;2023-09-30T02:19:59;100871.81;;;20.37;60.20
15678;BME280;7939;50.814;6.368;2023-09-30T02:22:27;100863.16;;;20.37;60.26
15678;BME280;7939;50.814;6.368;2023-09-30T02:24:54;100872.69;;;20.36;60.27
15678;BME280;7939;50.814;6.368;2023-09-30T02:27:21;100865.78;;;20.35;60.25
15678;BME280;7939;50.814;6.368;2023-09-30T02:29:47;100877.91;;;20.35;60.14
15678;BME280;7939;50.814;6.368;2023-09-30T02:32:16;100878.84;;;20.32;60.37
15678;BME280;7939;50.814;6.368;2023-09-30T02:34:43;100878.00;;;20.32;60.25
15678;BME280;7939;50.814;6.368;2023-09-30T02:37:10;100876.28;;;20.31;60.14
15678;BME280;7939;50.814;6.368;2023-09-30T02:39:36;100879.75;;;20.31;60.32
15678;BME280;7939;50.814;6.368;2023-09-30T02:42:03;100879.75;;;20.30;60.15
15678;BME280;7939;50.814;6.368;2023-09-30T02:44:30;100881.53;;;20.28;60.48
15678;BME280;7939;50.814;6.368;2023-09-30T02:46:57;100895.41;;;20.27;60.09
15678;BME280;7939;50.814;6.368;2023-09-30T02:49:25;100894.56;;;20.26;60.14
15678;BME280;7939;50.814;6.368;2023-09-30T02:51:52;100878.13;;;20.26;60.15
15678;BME280;7939;50.814;6.368;2023-09-30T02:54:18;100891.97;;;20.26;60.24
15678;BME280;7939;50.814;6.368;2023-09-30T02:56:45;100888.56;;;20.24;60.29
15678;BME280;7939;50.814;6.368;2023-09-30T02:59:13;100893.75;;;20.23;60.08
15678;BME280;7939;50.814;6.368;2023-09-30T03:01:40;100892.06;;;20.21;60.39
15678;BME280;7939;50.814;6.368;2023-09-30T03:04:06;100896.34;;;20.23;60.39
15678;BME280;7939;50.814;6.368;2023-09-30T03:06:36;100892.06;;;20.21;60.29
15678;BME280;7939;50.814;6.368;2023-09-30T03:09:03;100899.03;;;20.19;60.21
15678;BME280;7939;50.814;6.368;2023-09-30T03:11:30;100893.84;;;20.19;60.08
15678;BME280;7939;50.814;6.368;2023-09-30T03:13:57;100890.41;;;20.17;60.15
15678;BME280;7939;50.814;6.368;2023-09-30T03:16:24;100901.66;;;20.18;60.18
15678;BME280;7939;50.814;6.368;2023-09-30T03:18:51;100895.63;;;20.16;60.31
15678;BME280;7939;50.814;6.368;2023-09-30T03:21:18;100897.38;;;20.15;60.09
15678;BME280;7939;50.814;6.368;2023-09-30T03:23:46;100906.06;;;20.14;60.31
15678;BME280;7939;50.814;6.368;2023-09-30T03:26:13;100893.97;;;20.13;60.03
15678;BME280;7939;50.814;6.368;2023-09-30T03:28:40;100888.78;;;20.13;59.98
15678;BME280;7939;50.814;6.368;2023-09-30T03:31:08;100887.97;;;20.11;60.32
15678;BME280;7939;50.814;6.368;2023-09-30T03:33:36;100882.78;;;20.11;60.08
15678;BME280;7939;50.814;6.368;2023-09-30T03:36:03;100884.50;;;20.11;59.90
15678;BME280;7939;50.814;6.368;2023-09-30T03:38:30;100878.44;;;20.10;59.99
15678;BME280;7939;50.814;6.368;2023-09-30T03:40:59;100871.56;;;20.09;60.14
15678;BME280;7939;50.814;6.368;2023-09-30T03:43:26;100875.91;;;20.09;60.33
15678;BME280;7939;50.814;6.368;2023-09-30T03:45:52;100871.56;;;20.09;59.95
15678;BME280;7939;50.814;6.368;2023-09-30T03:48:20;100877.63;;;20.08;60.08
15678;BME280;7939;50.814;6.368;2023-09-30T03:50:48;100889.81;;;20.06;60.21
15678;BME280;7939;50.814;6.368;2023-09-30T03:53:14;100887.22;;;20.06;60.05
15678;BME280;7939;50.814;6.368;2023-09-30T03:55:41;100891.53;;;20.06;60.13
15678;BME280;7939;50.814;6.368;2023-09-30T03:58:09;100887.22;;;20.05;60.05
15678;BME280;7939;50.814;6.368;2023-09-30T04:00:36;100895.88;;;20.04;60.02
15678;BME280;7939;50.814;6.368;2023-09-30T04:03:03;100894.19;;;20.03;59.98
15678;BME280;7939;50.814;6.368;2023-09-30T04:05:29;100884.69;;;20.02;60.16
15678;BME280;7939;50.814;6.368;2023-09-30T04:08:01;100867.44;;;20.01;60.38
15678;BME280;7939;50.814;6.368;2023-09-30T04:10:28;100857.94;;;20.00;60.16
15678;BME280;7939;50.814;6.368;2023-09-30T04:12:55;100847.59;;;19.97;59.92
15678;BME280;7939;50.814;6.368;2023-09-30T04:15:23;100857.09;;;19.98;59.88
15678;BME280;7939;50.814;6.368;2023-09-30T04:17:50;100859.72;;;19.96;60.03
15678;BME280;7939;50.814;6.368;2023-09-30T04:20:18;100851.09;;;19.96;59.98
15678;BME280;7939;50.814;6.368;2023-09-30T04:22:48;100847.66;;;19.95;59.98
15678;BME280;7939;50.814;6.368;2023-09-30T04:25:16;100846.00;;;19.92;60.16
15678;BME280;7939;50.814;6.368;2023-09-30T04:27:43;100847.69;;;19.92;59.91
15678;BME280;7939;50.814;6.368;2023-09-30T04:30:13;100859.81;;;19.91;60.07
15678;BME280;7939;50.814;6.368;2023-09-30T04:32:42;100861.59;;;19.89;60.02
15678;BME280;7939;50.814;6.368;2023-09-30T04:35:10;100861.66;;;19.88;59.91
15678;BME280;7939;50.814;6.368;2023-09-30T04:37:37;100869.47;;;19.86;60.16
15678;BME280;7939;50.814;6.368;2023-09-30T04:40:05;100878.09;;;19.85;59.72
15678;BME280;7939;50.814;6.368;2023-09-30T04:42:40;100897.16;;;19.84;59.75
15678;BME280;7939;50.814;6.368;2023-09-30T04:45:09;100908.44;;;19.83;59.79
15678;BME280;7939;50.814;6.368;2023-09-30T04:47:36;100895.50;;;19.82;59.78
15678;BME280;7939;50.814;6.368;2023-09-30T04:50:05;100883.41;;;19.81;59.85
15678;BME280;7939;50.814;6.368;2023-09-30T04:52:33;100889.50;;;19.78;59.86
15678;BME280;7939;50.814;6.368;2023-09-30T04:55:00;100898.13;;;19.79;59.56
15678;BME280;7939;50.814;6.368;2023-09-30T04:57:27;100886.91;;;19.78;59.67
15678;BME280;7939;50.814;6.368;2023-09-30T04:59:53;100892.97;;;19.77;59.60
15678;BME280;7939;50.814;6.368;2023-09-30T05:02:20;100891.31;;;19.75;59.67
15678;BME280;7939;50.814;6.368;2023-09-30T05:04:47;100891.28;;;19.76;59.85
15678;BME280;7939;50.814;6.368;2023-09-30T05:07:15;100880.94;;;19.75;59.56
15678;BME280;7939;50.814;6.368;2023-09-30T05:09:43;100884.44;;;19.74;59.60
15678;BME280;7939;50.814;6.368;2023-09-30T05:12:10;100876.69;;;19.71;59.49
15678;BME280;7939;50.814;6.368;2023-09-30T05:14:37;100881.84;;;19.72;59.66
15678;BME280;7939;50.814;6.368;2023-09-30T05:17:04;100876.72;;;19.69;59.47
15678;BME280;7939;50.814;6.368;2023-09-30T05:19:31;100883.66;;;19.69;59.61
15678;BME280;7939;50.814;6.368;2023-09-30T05:21:58;100886.25;;;19.67;59.82
15678;BME280;7939;50.814;6.368;2023-09-30T05:24:28;100891.47;;;19.65;59.63
15678;BME280;7939;50.814;6.368;2023-09-30T05:26:54;100894.94;;;19.66;59.64
15678;BME280;7939;50.814;6.368;2023-09-30T05:29:21;100898.41;;;19.65;59.57
15678;BME280;7939;50.814;6.368;2023-09-30T05:31:48;100916.59;;;19.63;59.67
15678;BME280;7939;50.814;6.368;2023-09-30T05:34:14;100924.38;;;19.63;59.34
15678;BME280;7939;50.814;6.368;2023-09-30T05:36:41;100921.81;;;19.62;59.55
15678;BME280;7939;50.814;6.368;2023-09-30T05:39:09;100917.56;;;19.58;59.46
15678;BME280;7939;50.814;6.368;2023-09-30T05:41:39;100921.88;;;19.59;59.51
15678;BME280;7939;50.814;6.368;2023-09-30T05:44:07;100897.69;;;19.57;59.71
15678;BME280;7939;50.814;6.368;2023-09-30T05:46:34;100891.66;;;19.56;59.25
15678;BME280;7939;50.814;6.368;2023-09-30T05:49:01;100906.34;;;19.56;59.41
15678;BME280;7939;50.814;6.368;2023-09-30T05:51:35;100906.38;;;19.53;59.79
15678;BME280;7939;50.814;6.368;2023-09-30T05:54:01;100908.94;;;19.54;59.68
15678;BME280;7939;50.814;6.368;2023-09-30T05:56:29;100918.47;;;19.54;59.54
15678;BME280;7939;50.814;6.368;2023-09-30T05:58:57;100924.63;;;19.50;59.79
15678;BME280;7939;50.814;6.368;2023-09-30T06:01:24;100934.09;;;19.51;59.80
15678;BME280;7939;50.814;6.368;2023-09-30T06:03:52;100926.34;;;19.49;59.67
15678;BME280;7939;50.814;6.368;2023-09-30T06:06:18;100922.91;;;19.49;59.42
15678;BME280;7939;50.814;6.368;2023-09-30T06:08:45;100933.31;;;19.46;59.17
15678;BME280;7939;50.814;6.368;2023-09-30T06:11:16;100938.47;;;19.47;59.20
15678;BME280;7939;50.814;6.368;2023-09-30T06:13:43;100943.69;;;19.46;59.31
15678;BME280;7939;50.814;6.368;2023-09-30T06:16:12;100924.72;;;19.42;59.40
15678;BME280;7939;50.814;6.368;2023-09-30T06:18:39;100917.84;;;19.41;59.47
15678;BME280;7939;50.814;6.368;2023-09-30T06:21:05;100920.47;;;19.39;59.60
15678;BME280;7939;50.814;6.368;2023-09-30T06:23:32;100925.69;;;19.38;59.44
15678;BME280;7939;50.814;6.368;2023-09-30T06:25:59;100922.22;;;19.39;59.51
15678;BME280;7939;50.814;6.368;2023-09-30T06:28:27;100918.78;;;19.37;59.49
15678;BME280;7939;50.814;6.368;2023-09-30T06:30:56;100918.78;;;19.37;59.04
15678;BME280;7939;50.814;6.368;2023-09-30T06:33:25;100943.88;;;19.35;59.44
15678;BME280;7939;50.814;6.368;2023-09-30T06:35:54;100946.47;;;19.35;59.55
15678;BME280;7939;50.814;6.368;2023-09-30T06:38:21;100950.78;;;19.36;59.16
15678;BME280;7939;50.814;6.368;2023-09-30T06:40:48;100948.22;;;19.33;59.34
15678;BME280;7939;50.814;6.368;2023-09-30T06:43:15;100940.47;;;19.33;59.58
15678;BME280;7939;50.814;6.368;2023-09-30T06:45:42;100944.75;;;19.34;59.30
15678;BME280;7939;50.814;6.368;2023-09-30T06:48:10;100943.94;;;19.32;59.32
15678;BME280;7939;50.814;6.368;2023-09-30T06:50:43;100944.75;;;19.34;59.18
15678;BME280;7939;50.814;6.368;2023-09-30T06:53:10;100951.72;;;19.32;59.12
15678;BME280;7939;50.814;6.368;2023-09-30T06:55:38;100953.50;;;19.30;59.56
15678;BME280;7939;50.814;6.368;2023-09-30T06:58:05;100950.00;;;19.31;59.13
15678;BME280;7939;50.814;6.368;2023-09-30T07:00:33;100944.91;;;19.26;59.36
15678;BME280;7939;50.814;6.368;2023-09-30T07:03:00;100941.38;;;19.29;59.61
15678;BME280;7939;50.814;6.368;2023-09-30T07:05:27;100946.66;;;19.24;59.52
15678;BME280;7939;50.814;6.368;2023-09-30T07:07:56;100947.44;;;19.28;59.68
15678;BME280;7939;50.814;6.368;2023-09-30T07:10:23;100940.56;;;19.27;59.64
15678;BME280;7939;50.814;6.368;2023-09-30T07:12:49;100950.00;;;19.29;59.88
15678;BME280;7939;50.814;6.368;2023-09-30T07:15:16;100965.75;;;19.19;59.32
15678;BME280;7939;50.814;6.368;2023-09-30T07:17:43;100957.03;;;19.23;59.70
15678;BME280;7939;50.814;6.368;2023-09-30T07:20:11;100957.88;;;19.25;59.49
15678;BME280;7939;50.814;6.368;2023-09-30T07:22:38;100960.44;;;19.26;59.89
15678;BME280;7939;50.814;6.368;2023-09-30T07:25:07;100963.06;;;19.25;59.93
15678;BME280;7939;50.814;6.368;2023-09-30T07:27:32;100974.28;;;19.25;59.77
15678;BME280;7939;50.814;6.368;2023-09-30T07:29:59;100976.03;;;19.23;59.69
15678;BME280;7939;50.814;6.368;2023-09-30T07:32:26;100983.00;;;19.20;59.38
15678;BME280;7939;50.814;6.368;2023-09-30T07:34:54;100992.59;;;19.14;59.71
15678;BME280;7939;50.814;6.368;2023-09-30T07:37:21;101002.16;;;19.11;59.67
15678;BME280;7939;50.814;6.368;2023-09-30T07:39:48;100997.78;;;19.14;59.56
15678;BME280;7939;50.814;6.368;2023-09-30T07:42:16;100989.13;;;19.17;60.20
15678;BME280;7939;50.814;6.368;2023-09-30T07:44:43;101000.31;;;19.19;59.71
15678;BME280;7939;50.814;6.368;2023-09-30T07:47:09;101007.22;;;19.19;59.98
15678;BME280;7939;50.814;6.368;2023-09-30T07:49:38;101002.06;;;19.17;60.30
15678;BME280;7939;50.814;6.368;2023-09-30T07:52:05;100994.28;;;19.19;59.80
15678;BME280;7939;50.814;6.368;2023-09-30T07:54:32;100992.50;;;19.21;60.01
15678;BME280;7939;50.814;6.368;2023-09-30T07:56:58;100995.16;;;19.18;59.79
15678;BME280;7939;50.814;6.368;2023-09-30T07:59:27;100999.44;;;19.19;59.91
15678;BME280;7939;50.814;6.368;2023-09-30T08:01:54;100997.00;;;19.11;59.92
15678;BME280;7939;50.814;6.368;2023-09-30T08:04:21;101001.19;;;19.18;59.94
15678;BME280;7939;50.814;6.368;2023-09-30T08:06:48;101009.78;;;19.20;60.01
15678;BME280;7939;50.814;6.368;2023-09-30T08:09:16;101015.94;;;19.13;60.23
15678;BME280;7939;50.814;6.368;2023-09-30T08:11:43;101006.44;;;19.13;60.04
15678;BME280;7939;50.814;6.368;2023-09-30T08:14:10;101011.53;;;19.20;60.08
15678;BME280;7939;50.814;6.368;2023-09-30T08:16:38;101019.34;;;19.18;60.18
15678;BME280;7939;50.814;6.368;2023-09-30T08:19:05;101016.84;;;19.12;59.95
15678;BME280;7939;50.814;6.368;2023-09-30T08:21:32;101013.19;;;19.22;60.49
15678;BME280;7939;50.814;6.368;2023-09-30T08:23:59;101014.91;;;19.23;60.33
15678;BME280;7939;50.814;6.368;2023-09-30T08:26:26;101008.00;;;19.24;59.93
15678;BME280;7939;50.814;6.368;2023-09-30T08:28:52;101010.59;;;19.22;59.91
15678;BME280;7939;50.814;6.368;2023-09-30T08:31:19;101010.53;;;19.27;60.30
15678;BME280;7939;50.814;6.368;2023-09-30T08:33:48;101013.19;;;19.24;60.42
15678;BME280;7939;50.814;6.368;2023-09-30T08:36:15;101018.28;;;19.30;59.75
15678;BME280;7939;50.814;6.368;2023-09-30T08:38:41;101019.03;;;19.35;60.36
15678;BME280;7939;50.814;6.368;2023-09-30T08:41:09;101008.63;;;19.38;60.16
15678;BME280;7939;50.814;6.368;2023-09-30T08:43:38;101017.28;;;19.38;60.01
15678;BME280;7939;50.814;6.368;2023-09-30T08:46:06;101017.31;;;19.35;59.80
15678;BME280;7939;50.814;6.368;2023-09-30T08:48:34;101025.03;;;19.38;60.25
15678;BME280;7939;50.814;6.368;2023-09-30T08:51:02;101020.63;;;19.45;60.35
15678;BME280;7939;50.814;6.368;2023-09-30T08:53:29;101029.22;;;19.47;59.90
15678;BME280;7939;50.814;6.368;2023-09-30T08:55:57;101016.25;;;19.47;59.99
15678;BME280;7939;50.814;6.368;2023-09-30T08:58:27;101019.63;;;19.52;59.93
15678;BME280;7939;50.814;6.368;2023-09-30T09:00:54;101010.97;;;19.53;60.16
15678;BME280;7939;50.814;6.368;2023-09-30T09:03:21;101013.50;;;19.58;59.92
15678;BME280;7939;50.814;6.368;2023-09-30T09:05:53;101004.81;;;19.60;59.89
15678;BME280;7939;50.814;6.368;2023-09-30T09:08:22;101014.28;;;19.63;59.86
15678;BME280;7939;50.814;6.368;2023-09-30T09:10:56;101013.41;;;19.64;59.57
15678;BME280;7939;50.814;6.368;2023-09-30T09:13:24;101011.63;;;19.66;59.88
15678;BME280;7939;50.814;6.368;2023-09-30T09:16:05;101009.88;;;19.68;59.76
15678;BME280;7939;50.814;6.368;2023-09-30T09:18:33;101004.66;;;19.70;59.44
15678;BME280;7939;50.814;6.368;2023-09-30T09:21:14;100997.66;;;19.73;59.12
15678;BME280;7939;50.814;6.368;2023-09-30T09:23:44;100995.03;;;19.76;59.05
15678;BME280;7939;50.814;6.368;2023-09-30T09:26:11;101003.59;;;19.80;59.00
15678;BME280;7939;50.814;6.368;2023-09-30T09:28:39;100990.63;;;19.81;58.70
15678;BME280;7939;50.814;6.368;2023-09-30T09:31:20;100994.88;;;19.84;58.11
15678;BME280;7939;50.814;6.368;2023-09-30T09:33:48;101000.97;;;19.83;58.03
15678;BME280;7939;50.814;6.368;2023-09-30T09:36:15;100998.28;;;19.86;58.17
15678;BME280;7939;50.814;6.368;2023-09-30T09:38:48;101003.44;;;19.89;57.11
15678;BME280;7939;50.814;6.368;2023-09-30T09:41:19;101001.66;;;19.92;58.04
15678;BME280;7939;50.814;6.368;2023-09-30T09:43:48;101008.53;;;19.95;57.42
15678;BME280;7939;50.814;6.368;2023-09-30T09:46:16;101013.63;;;19.98;57.43
15678;BME280;7939;50.814;6.368;2023-09-30T09:48:45;101006.69;;;20.00;57.21
15678;BME280;7939;50.814;6.368;2023-09-30T09:51:13;101010.06;;;20.05;57.16
15678;BME280;7939;50.814;6.368;2023-09-30T09:53:41;101014.34;;;20.08;56.87
15678;BME280;7939;50.814;6.368;2023-09-30T09:56:10;101009.06;;;20.11;56.86
15678;BME280;7939;50.814;6.368;2023-09-30T09:58:39;101011.63;;;20.14;56.87
15678;BME280;7939;50.814;6.368;2023-09-30T10:01:09;101013.28;;;20.16;56.71
15678;BME280;7939;50.814;6.368;2023-09-30T10:03:37;101014.97;;;20.19;56.97
15678;BME280;7939;50.814;6.368;2023-09-30T10:06:05;101013.16;;;20.23;56.38
15678;BME280;7939;50.814;6.368;2023-09-30T10:08:35;101021.84;;;20.21;55.67
15678;BME280;7939;50.814;6.368;2023-09-30T10:11:03;101017.50;;;20.22;55.09
15678;BME280;7939;50.814;6.368;2023-09-30T10:13:54;101019.16;;;20.26;54.80
15678;BME280;7939;50.814;6.368;2023-09-30T10:16:47;101023.50;;;20.26;54.38
15678;BME280;7939;50.814;6.368;2023-09-30T10:19:15;101025.13;;;20.30;55.49
15678;BME280;7939;50.814;6.368;2023-09-30T10:22:20;101020.81;;;20.30;54.42
15678;BME280;7939;50.814;6.368;2023-09-30T10:24:48;101028.56;;;20.32;54.22
15678;BME280;7939;50.814;6.368;2023-09-30T10:27:32;101038.09;;;20.31;53.93
15678;BME280;7939;50.814;6.368;2023-09-30T10:30:07;101036.28;;;20.35;54.80
15678;BME280;7939;50.814;6.368;2023-09-30T10:33:12;101028.38;;;20.41;54.50
15678;BME280;7939;50.814;6.368;2023-09-30T10:35:46;101026.63;;;20.41;53.97
15678;BME280;7939;50.814;6.368;2023-09-30T10:38:39;101026.56;;;20.44;54.12
15678;BME280;7939;50.814;6.368;2023-09-30T10:41:09;101030.88;;;20.47;53.95
15678;BME280;7939;50.814;6.368;2023-09-30T10:43:39;101029.16;;;20.46;53.79
15678;BME280;7939;50.814;6.368;2023-09-30T10:46:33;101023.94;;;20.47;54.12
15678;BME280;7939;50.814;6.368;2023-09-30T10:49:17;101022.19;;;20.50;54.49
15678;BME280;7939;50.814;6.368;2023-09-30T10:51:44;101032.53;;;20.51;53.68
15678;BME280;7939;50.814;6.368;2023-09-30T10:54:13;101019.47;;;20.54;54.40
15678;BME280;7939;50.814;6.368;2023-09-30T10:56:40;101023.84;;;20.52;52.94
15678;BME280;7939;50.814;6.368;2023-09-30T10:59:07;101028.09;;;20.55;54.04
15678;BME280;7939;50.814;6.368;2023-09-30T11:01:36;101030.72;;;20.55;53.91
15678;BME280;7939;50.814;6.368;2023-09-30T11:04:09;101016.88;;;20.56;54.00
15678;BME280;7939;50.814;6.368;2023-09-30T11:06:40;101015.13;;;20.55;53.49
15678;BME280;7939;50.814;6.368;2023-09-30T11:09:07;101011.66;;;20.54;53.04
15678;BME280;7939;50.814;6.368;2023-09-30T11:11:39;101001.31;;;20.53;52.83
15678;BME280;7939;50.814;6.368;2023-09-30T11:14:19;100996.09;;;20.54;53.43
15678;BME280;7939;50.814;6.368;2023-09-30T11:16:48;100999.44;;;20.59;53.86
15678;BME280;7939;50.814;6.368;2023-09-30T11:19:15;101003.75;;;20.60;52.90
15678;BME280;7939;50.814;6.368;2023-09-30T11:21:42;100989.81;;;20.64;53.83
15678;BME280;7939;50.814;6.368;2023-09-30T11:24:10;100993.28;;;20.65;53.86
15678;BME280;7939;50.814;6.368;2023-09-30T11:26:37;100992.38;;;20.66;53.61
15678;BME280;7939;50.814;6.368;2023-09-30T11:29:07;100987.19;;;20.66;53.86
15678;BME280;7939;50.814;6.368;2023-09-30T11:31:37;100988.03;;;20.68;54.12
15678;BME280;7939;50.814;6.368;2023-09-30T11:34:05;100988.03;;;20.68;53.29
15678;BME280;7939;50.814;6.368;2023-09-30T11:36:34;100993.09;;;20.72;53.80
15678;BME280;7939;50.814;6.368;2023-09-30T11:39:01;100998.22;;;20.76;53.33
15678;BME280;7939;50.814;6.368;2023-09-30T11:41:33;100986.06;;;20.78;53.36
15678;BME280;7939;50.814;6.368;2023-09-30T11:44:02;100991.19;;;20.81;53.54
15678;BME280;7939;50.814;6.368;2023-09-30T11:46:47;100991.19;;;20.81;51.96
15678;BME280;7939;50.814;6.368;2023-09-30T11:49:25;100990.25;;;20.83;52.49
15678;BME280;7939;50.814;6.368;2023-09-30T11:51:53;100984.97;;;20.88;52.89
15678;BME280;7939;50.814;6.368;2023-09-30T11:54:20;100986.56;;;20.93;54.06
15678;BME280;7939;50.814;6.368;2023-09-30T11:56:48;100984.75;;;20.97;53.96
15678;BME280;7939;50.814;6.368;2023-09-30T11:59:16;100969.09;;;20.98;53.69
15678;BME280;7939;50.814;6.368;2023-09-30T12:01:45;100959.53;;;21.00;53.41
15678;BME280;7939;50.814;6.368;2023-09-30T12:04:14;100964.69;;;21.02;53.68
15678;BME280;7939;50.814;6.368;2023-09-30T12:06:44;100945.59;;;21.03;53.16
15678;BME280;7939;50.814;6.368;2023-09-30T12:09:11;100950.59;;;21.11;51.34
15678;BME280;7939;50.814;6.368;2023-09-30T12:11:39;100953.69;;;21.26;51.40
15678;BME280;7939;50.814;6.368;2023-09-30T12:14:10;100939.31;;;21.47;50.38
15678;BME280;7939;50.814;6.368;2023-09-30T12:16:37;100937.88;;;21.68;50.84
15678;BME280;7939;50.814;6.368;2023-09-30T12:19:03;100934.75;;;21.87;51.87
15678;BME280;7939;50.814;6.368;2023-09-30T12:21:31;100930.88;;;22.01;51.93
15678;BME280;7939;50.814;6.368;2023-09-30T12:24:01;100925.34;;;22.14;51.18
15678;BME280;7939;50.814;6.368;2023-09-30T12:26:28;100930.22;;;22.24;51.39
15678;BME280;7939;50.814;6.368;2023-09-30T12:28:55;100928.22;;;22.34;50.96
15678;BME280;7939;50.814;6.368;2023-09-30T12:31:22;100931.50;;;22.41;51.28
15678;BME280;7939;50.814;6.368;2023-09-30T12:33:49;100936.59;;;22.44;51.45
15678;BME280;7939;50.814;6.368;2023-09-30T12:36:17;100933.72;;;22.53;50.81
15678;BME280;7939;50.814;6.368;2023-09-30T12:38:44;100928.31;;;22.59;51.10
15678;BME280;7939;50.814;6.368;2023-09-30T12:41:12;100930.78;;;22.64;51.44
15678;BME280;7939;50.814;6.368;2023-09-30T12:43:39;100923.66;;;22.69;51.13
15678;BME280;7939;50.814;6.368;2023-09-30T12:46:07;100927.94;;;22.71;51.40
15678;BME280;7939;50.814;6.368;2023-09-30T12:48:34;100939.91;;;22.77;50.75
15678;BME280;7939;50.814;6.368;2023-09-30T12:51:02;100932.84;;;22.80;51.05
15678;BME280;7939;50.814;6.368;2023-09-30T12:53:30;100927.63;;;22.80;51.15
15678;BME280;7939;50.814;6.368;2023-09-30T12:55:57;100938.81;;;22.84;50.81
15678;BME280;7939;50.814;6.368;2023-09-30T12:58:26;100936.94;;;22.89;50.91
15678;BME280;7939;50.814;6.368;2023-09-30T13:00:54;100940.28;;;22.93;51.00
15678;BME280;7939;50.814;6.368;2023-09-30T13:03:20;100930.72;;;22.93;50.68
15678;BME280;7939;50.814;6.368;2023-09-30T13:05:47;100932.34;;;22.97;50.83
15678;BME280;7939;50.814;6.368;2023-09-30T13:08:14;100932.34;;;22.97;50.83